sensor_id;sensor_type;location;lat;lon;timestamp;P1;durP1;ratioP1;P2;durP2;ratioP2
3708;SDS011;1870;53.996;10.784;2023-04-29T00:01:29;18.43;;;8.87;;
3708;SDS011;1870;53.996;10.784;2023-04-29T00:03:55;17.93;;;9.50;;
3708;SDS011;1870;53.996;10.784;2023-04-29T00:06:20;15.90;;;9.87;;
3708;SDS011;1870;53.996;10.784;2023-04-29T00:08:46;14.67;;;9.40;;
3708;SDS011;1870;53.996;10.784;2023-04-29T00:11:12;16.97;;;10.20;;
3708;SDS011;1870;53.996;10.784;2023-04-29T00:13:38;18.10;;;9.40;;
3708;SDS011;1870;53.996;10.784;2023-04-29T00:16:06;28.97;;;10.30;;
3708;SDS011;1870;53.996;10.784;2023-04-29T00:18:32;16.50;;;9.63;;
3708;SDS011;1870;53.996;10.784;2023-04-29T00:20:58;16.30;;;9.97;;
3708;SDS011;1870;53.996;10.784;2023-04-29T00:23:23;15.80;;;9.10;;
3708;SDS011;1870;53.996;10.784;2023-04-29T00:25:49;22.93;;;10.07;;
3708;SDS011;1870;53.996;10.784;2023-04-29T00:28:17;19.43;;;10.67;;
3708;SDS011;1870;53.996;10.784;2023-04-29T00:30:43;19.47;;;9.80;;
3708;SDS011;1870;53.996;10.784;2023-04-29T00:33:08;24.00;;;11.43;;
3708;SDS011;1870;53.996;10.784;2023-04-29T00:35:34;18.23;;;10.93;;
3708;SDS011;1870;53.996;10.784;2023-04-29T00:38:00;22.97;;;12.47;;
3708;SDS011;1870;53.996;10.784;2023-04-29T00:40:26;24.13;;;13.00;;
3708;SDS011;1870;53.996;10.784;2023-04-29T00:42:52;29.20;;;13.03;;
3708;SDS011;1870;53.996;10.784;2023-04-29T00:45:18;24.77;;;11.90;;
3708;SDS011;1870;53.996;10.784;2023-04-29T00:47:44;25.50;;;13.57;;
3708;SDS011;1870;53.996;10.784;2023-04-29T00:50:09;29.70;;;13.40;;
3708;SDS011;1870;53.996;10.784;2023-04-29T00:52:35;21.83;;;12.77;;
3708;SDS011;1870;53.996;10.784;2023-04-29T00:55:03;23.90;;;13.33;;
3708;SDS011;1870;53.996;10.784;2023-04-29T00:57:30;28.50;;;13.13;;
3708;SDS011;1870;53.996;10.784;2023-04-29T00:59:58;66.80;;;15.47;;
3708;SDS011;1870;53.996;10.784;2023-04-29T01:02:24;32.87;;;12.83;;
3708;SDS011;1870;53.996;10.784;2023-04-29T01:04:51;29.63;;;13.13;;
3708;SDS011;1870;53.996;10.784;2023-04-29T01:07:18;25.47;;;12.40;;
3708;SDS011;1870;53.996;10.784;2023-04-29T01:17:38;26.17;;;13.43;;
3708;SDS011;1870;53.996;10.784;2023-04-29T01:20:08;23.90;;;11.30;;
3708;SDS011;1870;53.996;10.784;2023-04-29T01:22:34;19.80;;;10.60;;
3708;SDS011;1870;53.996;10.784;2023-04-29T01:25:01;24.70;;;12.57;;
3708;SDS011;1870;53.996;10.784;2023-04-29T01:30:17;23.60;;;12.00;;
3708;SDS011;1870;53.996;10.784;2023-04-29T01:33:02;19.20;;;11.83;;
3708;SDS011;1870;53.996;10.784;2023-04-29T01:38:33;20.07;;;11.47;;
3708;SDS011;1870;53.996;10.784;2023-04-29T01:43:34;19.50;;;11.73;;
3708;SDS011;1870;53.996;10.784;2023-04-29T01:46:04;23.00;;;11.13;;
3708;SDS011;1870;53.996;10.784;2023-04-29T01:48:33;25.10;;;11.27;;
3708;SDS011;1870;53.996;10.784;2023-04-29T01:50:59;24.27;;;10.27;;
3708;SDS011;1870;53.996;10.784;2023-04-29T01:53:25;20.27;;;10.20;;
3708;SDS011;1870;53.996;10.784;2023-04-29T01:55:51;14.03;;;8.40;;
3708;SDS011;1870;53.996;10.784;2023-04-29T01:58:17;22.33;;;9.13;;
3708;SDS011;1870;53.996;10.784;2023-04-29T02:00:42;16.20;;;8.90;;
3708;SDS011;1870;53.996;10.784;2023-04-29T02:03:08;15.77;;;8.00;;
3708;SDS011;1870;53.996;10.784;2023-04-29T02:05:34;22.50;;;9.10;;
3708;SDS011;1870;53.996;10.784;2023-04-29T02:08:00;19.00;;;10.83;;
3708;SDS011;1870;53.996;10.784;2023-04-29T02:10:26;18.13;;;9.50;;
3708;SDS011;1870;53.996;10.784;2023-04-29T02:12:53;18.13;;;9.20;;
3708;SDS011;1870;53.996;10.784;2023-04-29T02:15:19;21.00;;;8.67;;
3708;SDS011;1870;53.996;10.784;2023-04-29T02:17:45;18.20;;;9.33;;
3708;SDS011;1870;53.996;10.784;2023-04-29T02:20:11;18.60;;;8.57;;
3708;SDS011;1870;53.996;10.784;2023-04-29T02:22:37;20.00;;;9.30;;
3708;SDS011;1870;53.996;10.784;2023-04-29T02:25:03;20.30;;;10.50;;
3708;SDS011;1870;53.996;10.784;2023-04-29T02:27:30;16.30;;;8.90;;
3708;SDS011;1870;53.996;10.784;2023-04-29T02:29:56;18.30;;;9.60;;
3708;SDS011;1870;53.996;10.784;2023-04-29T02:32:21;18.73;;;10.10;;
3708;SDS011;1870;53.996;10.784;2023-04-29T02:34:47;14.63;;;8.60;;
3708;SDS011;1870;53.996;10.784;2023-04-29T02:37:13;19.20;;;10.67;;
3708;SDS011;1870;53.996;10.784;2023-04-29T02:39:39;15.50;;;8.40;;
3708;SDS011;1870;53.996;10.784;2023-04-29T02:42:05;20.37;;;9.33;;
3708;SDS011;1870;53.996;10.784;2023-04-29T02:44:34;23.00;;;8.87;;
3708;SDS011;1870;53.996;10.784;2023-04-29T02:47:03;13.43;;;8.37;;
3708;SDS011;1870;53.996;10.784;2023-04-29T02:49:28;14.90;;;8.47;;
3708;SDS011;1870;53.996;10.784;2023-04-29T02:51:54;21.27;;;8.43;;
3708;SDS011;1870;53.996;10.784;2023-04-29T02:54:20;16.10;;;8.27;;
3708;SDS011;1870;53.996;10.784;2023-04-29T02:56:46;17.00;;;8.50;;
3708;SDS011;1870;53.996;10.784;2023-04-29T02:59:11;19.80;;;9.03;;
3708;SDS011;1870;53.996;10.784;2023-04-29T03:01:37;14.13;;;7.37;;
3708;SDS011;1870;53.996;10.784;2023-04-29T03:04:03;19.13;;;8.13;;
3708;SDS011;1870;53.996;10.784;2023-04-29T03:06:30;21.30;;;7.60;;
3708;SDS011;1870;53.996;10.784;2023-04-29T03:08:56;17.97;;;8.53;;
3708;SDS011;1870;53.996;10.784;2023-04-29T03:11:22;16.70;;;7.20;;
3708;SDS011;1870;53.996;10.784;2023-04-29T03:13:50;15.20;;;7.47;;
3708;SDS011;1870;53.996;10.784;2023-04-29T03:16:16;17.60;;;7.57;;
3708;SDS011;1870;53.996;10.784;2023-04-29T03:18:42;18.67;;;8.70;;
3708;SDS011;1870;53.996;10.784;2023-04-29T03:21:09;14.73;;;8.10;;
3708;SDS011;1870;53.996;10.784;2023-04-29T03:23:34;12.60;;;7.00;;
3708;SDS011;1870;53.996;10.784;2023-04-29T03:26:00;10.57;;;6.90;;
3708;SDS011;1870;53.996;10.784;2023-04-29T03:28:26;13.70;;;6.90;;
3708;SDS011;1870;53.996;10.784;2023-04-29T03:30:52;14.70;;;7.20;;
3708;SDS011;1870;53.996;10.784;2023-04-29T03:33:18;14.40;;;6.93;;
3708;SDS011;1870;53.996;10.784;2023-04-29T03:35:43;18.57;;;8.13;;
3708;SDS011;1870;53.996;10.784;2023-04-29T03:38:09;19.33;;;7.50;;
3708;SDS011;1870;53.996;10.784;2023-04-29T03:40:35;15.00;;;8.37;;
3708;SDS011;1870;53.996;10.784;2023-04-29T03:43:01;20.47;;;8.83;;
3708;SDS011;1870;53.996;10.784;2023-04-29T03:45:27;16.50;;;7.43;;
3708;SDS011;1870;53.996;10.784;2023-04-29T03:47:53;11.30;;;7.73;;
3708;SDS011;1870;53.996;10.784;2023-04-29T03:50:19;17.20;;;7.83;;
3708;SDS011;1870;53.996;10.784;2023-04-29T03:52:45;19.07;;;9.30;;
3708;SDS011;1870;53.996;10.784;2023-04-29T03:55:11;20.33;;;7.90;;
3708;SDS011;1870;53.996;10.784;2023-04-29T03:57:36;19.33;;;8.10;;
3708;SDS011;1870;53.996;10.784;2023-04-29T04:00:02;22.10;;;9.20;;
3708;SDS011;1870;53.996;10.784;2023-04-29T04:02:29;22.30;;;9.90;;
3708;SDS011;1870;53.996;10.784;2023-04-29T04:04:54;19.43;;;8.93;;
3708;SDS011;1870;53.996;10.784;2023-04-29T04:07:20;22.60;;;8.97;;
3708;SDS011;1870;53.996;10.784;2023-04-29T04:09:46;16.00;;;8.90;;
3708;SDS011;1870;53.996;10.784;2023-04-29T04:12:12;33.30;;;10.03;;
3708;SDS011;1870;53.996;10.784;2023-04-29T04:14:37;16.00;;;9.07;;
3708;SDS011;1870;53.996;10.784;2023-04-29T04:17:03;21.10;;;9.50;;
3708;SDS011;1870;53.996;10.784;2023-04-29T04:19:29;12.60;;;7.87;;
3708;SDS011;1870;53.996;10.784;2023-04-29T04:21:55;18.90;;;8.27;;
3708;SDS011;1870;53.996;10.784;2023-04-29T04:24:21;24.43;;;9.67;;
3708;SDS011;1870;53.996;10.784;2023-04-29T04:26:47;16.30;;;8.17;;
3708;SDS011;1870;53.996;10.784;2023-04-29T04:29:12;20.83;;;9.93;;
3708;SDS011;1870;53.996;10.784;2023-04-29T04:31:39;17.60;;;9.40;;
3708;SDS011;1870;53.996;10.784;2023-04-29T04:34:04;19.17;;;9.70;;
3708;SDS011;1870;53.996;10.784;2023-04-29T04:36:30;16.20;;;8.03;;
3708;SDS011;1870;53.996;10.784;2023-04-29T04:38:56;17.23;;;8.23;;
3708;SDS011;1870;53.996;10.784;2023-04-29T04:41:22;17.40;;;8.60;;
3708;SDS011;1870;53.996;10.784;2023-04-29T04:43:48;16.60;;;9.17;;
3708;SDS011;1870;53.996;10.784;2023-04-29T04:46:14;22.67;;;9.70;;
3708;SDS011;1870;53.996;10.784;2023-04-29T04:48:41;16.00;;;8.23;;
3708;SDS011;1870;53.996;10.784;2023-04-29T04:51:07;16.20;;;8.70;;
3708;SDS011;1870;53.996;10.784;2023-04-29T04:53:34;24.30;;;9.00;;
3708;SDS011;1870;53.996;10.784;2023-04-29T04:56:02;15.23;;;8.47;;
3708;SDS011;1870;53.996;10.784;2023-04-29T04:58:29;17.20;;;8.00;;
3708;SDS011;1870;53.996;10.784;2023-04-29T05:00:58;13.87;;;8.13;;
3708;SDS011;1870;53.996;10.784;2023-04-29T05:03:25;18.53;;;8.43;;
3708;SDS011;1870;53.996;10.784;2023-04-29T05:08:20;19.90;;;7.27;;
3708;SDS011;1870;53.996;10.784;2023-04-29T05:10:46;14.53;;;7.80;;
3708;SDS011;1870;53.996;10.784;2023-04-29T05:13:11;11.60;;;6.87;;
3708;SDS011;1870;53.996;10.784;2023-04-29T05:15:37;22.43;;;9.23;;
3708;SDS011;1870;53.996;10.784;2023-04-29T05:18:02;15.50;;;8.67;;
3708;SDS011;1870;53.996;10.784;2023-04-29T05:20:28;18.77;;;8.37;;
3708;SDS011;1870;53.996;10.784;2023-04-29T05:22:54;16.60;;;9.07;;
3708;SDS011;1870;53.996;10.784;2023-04-29T05:25:20;13.90;;;7.83;;
3708;SDS011;1870;53.996;10.784;2023-04-29T05:27:45;17.20;;;8.60;;
3708;SDS011;1870;53.996;10.784;2023-04-29T05:30:11;17.57;;;8.70;;
3708;SDS011;1870;53.996;10.784;2023-04-29T05:32:37;17.70;;;9.40;;
3708;SDS011;1870;53.996;10.784;2023-04-29T05:35:06;17.70;;;8.87;;
3708;SDS011;1870;53.996;10.784;2023-04-29T05:37:32;19.23;;;8.50;;
3708;SDS011;1870;53.996;10.784;2023-04-29T05:39:57;16.50;;;9.00;;
3708;SDS011;1870;53.996;10.784;2023-04-29T05:42:23;18.83;;;9.60;;
3708;SDS011;1870;53.996;10.784;2023-04-29T05:44:50;21.63;;;9.07;;
3708;SDS011;1870;53.996;10.784;2023-04-29T05:47:16;14.20;;;8.20;;
3708;SDS011;1870;53.996;10.784;2023-04-29T05:49:41;21.60;;;9.13;;
3708;SDS011;1870;53.996;10.784;2023-04-29T05:52:09;15.10;;;7.63;;
3708;SDS011;1870;53.996;10.784;2023-04-29T05:54:35;17.23;;;8.57;;
3708;SDS011;1870;53.996;10.784;2023-04-29T05:57:01;16.70;;;9.10;;
3708;SDS011;1870;53.996;10.784;2023-04-29T05:59:30;16.13;;;9.00;;
3708;SDS011;1870;53.996;10.784;2023-04-29T06:01:57;21.43;;;8.70;;
3708;SDS011;1870;53.996;10.784;2023-04-29T06:04:23;16.80;;;8.37;;
3708;SDS011;1870;53.996;10.784;2023-04-29T06:06:49;15.77;;;8.30;;
3708;SDS011;1870;53.996;10.784;2023-04-29T06:09:16;13.40;;;7.60;;
3708;SDS011;1870;53.996;10.784;2023-04-29T06:11:42;16.17;;;9.30;;
3708;SDS011;1870;53.996;10.784;2023-04-29T06:14:09;14.03;;;7.60;;
3708;SDS011;1870;53.996;10.784;2023-04-29T06:16:35;18.10;;;8.77;;
3708;SDS011;1870;53.996;10.784;2023-04-29T06:19:00;15.33;;;8.50;;
3708;SDS011;1870;53.996;10.784;2023-04-29T06:21:26;16.27;;;9.00;;
3708;SDS011;1870;53.996;10.784;2023-04-29T06:23:53;14.43;;;8.17;;
3708;SDS011;1870;53.996;10.784;2023-04-29T06:26:19;15.20;;;8.23;;
3708;SDS011;1870;53.996;10.784;2023-04-29T06:28:48;13.63;;;7.10;;
3708;SDS011;1870;53.996;10.784;2023-04-29T06:31:14;15.30;;;8.00;;
3708;SDS011;1870;53.996;10.784;2023-04-29T06:33:40;17.70;;;7.87;;
3708;SDS011;1870;53.996;10.784;2023-04-29T06:36:06;14.70;;;8.20;;
3708;SDS011;1870;53.996;10.784;2023-04-29T06:38:32;12.80;;;7.70;;
3708;SDS011;1870;53.996;10.784;2023-04-29T06:40:58;11.93;;;6.87;;
3708;SDS011;1870;53.996;10.784;2023-04-29T06:43:28;13.90;;;7.13;;
3708;SDS011;1870;53.996;10.784;2023-04-29T06:45:54;15.90;;;7.17;;
3708;SDS011;1870;53.996;10.784;2023-04-29T06:48:20;11.20;;;6.53;;
3708;SDS011;1870;53.996;10.784;2023-04-29T06:50:53;10.07;;;6.87;;
3708;SDS011;1870;53.996;10.784;2023-04-29T06:53:20;16.93;;;6.60;;
3708;SDS011;1870;53.996;10.784;2023-04-29T06:55:46;13.03;;;7.37;;
3708;SDS011;1870;53.996;10.784;2023-04-29T06:58:16;9.50;;;6.60;;
3708;SDS011;1870;53.996;10.784;2023-04-29T07:00:43;13.50;;;6.83;;
3708;SDS011;1870;53.996;10.784;2023-04-29T07:03:10;16.53;;;6.20;;
3708;SDS011;1870;53.996;10.784;2023-04-29T07:05:36;12.40;;;7.70;;
3708;SDS011;1870;53.996;10.784;2023-04-29T07:08:06;13.47;;;7.90;;
3708;SDS011;1870;53.996;10.784;2023-04-29T07:10:32;15.83;;;7.80;;
3708;SDS011;1870;53.996;10.784;2023-04-29T07:13:05;17.10;;;7.47;;
3708;SDS011;1870;53.996;10.784;2023-04-29T07:15:34;13.30;;;7.73;;
3708;SDS011;1870;53.996;10.784;2023-04-29T07:18:04;14.60;;;7.87;;
3708;SDS011;1870;53.996;10.784;2023-04-29T07:20:30;14.47;;;8.37;;
3708;SDS011;1870;53.996;10.784;2023-04-29T07:22:56;15.40;;;8.10;;
3708;SDS011;1870;53.996;10.784;2023-04-29T07:25:22;14.40;;;6.80;;
3708;SDS011;1870;53.996;10.784;2023-04-29T07:27:48;18.13;;;7.33;;
3708;SDS011;1870;53.996;10.784;2023-04-29T07:30:13;15.70;;;6.83;;
3708;SDS011;1870;53.996;10.784;2023-04-29T07:32:39;12.23;;;6.90;;
3708;SDS011;1870;53.996;10.784;2023-04-29T07:35:05;11.97;;;6.93;;
3708;SDS011;1870;53.996;10.784;2023-04-29T07:37:32;7.27;;;5.50;;
3708;SDS011;1870;53.996;10.784;2023-04-29T07:39:58;10.70;;;6.00;;
3708;SDS011;1870;53.996;10.784;2023-04-29T07:42:24;14.57;;;6.93;;
3708;SDS011;1870;53.996;10.784;2023-04-29T07:44:50;11.60;;;7.20;;
3708;SDS011;1870;53.996;10.784;2023-04-29T07:47:15;16.30;;;7.20;;
3708;SDS011;1870;53.996;10.784;2023-04-29T07:49:41;16.87;;;5.93;;
3708;SDS011;1870;53.996;10.784;2023-04-29T07:52:07;9.10;;;6.37;;
3708;SDS011;1870;53.996;10.784;2023-04-29T07:54:35;9.40;;;6.50;;
3708;SDS011;1870;53.996;10.784;2023-04-29T07:57:01;13.70;;;6.43;;
3708;SDS011;1870;53.996;10.784;2023-04-29T07:59:28;12.17;;;5.80;;
3708;SDS011;1870;53.996;10.784;2023-04-29T08:01:55;11.70;;;6.50;;
3708;SDS011;1870;53.996;10.784;2023-04-29T08:04:21;10.47;;;6.57;;
3708;SDS011;1870;53.996;10.784;2023-04-29T08:06:47;13.97;;;6.27;;
3708;SDS011;1870;53.996;10.784;2023-04-29T08:09:14;12.13;;;6.87;;
3708;SDS011;1870;53.996;10.784;2023-04-29T08:11:42;15.63;;;6.67;;
3708;SDS011;1870;53.996;10.784;2023-04-29T08:14:09;14.50;;;6.37;;
3708;SDS011;1870;53.996;10.784;2023-04-29T08:16:38;8.63;;;6.30;;
3708;SDS011;1870;53.996;10.784;2023-04-29T08:19:03;13.23;;;8.50;;
3708;SDS011;1870;53.996;10.784;2023-04-29T08:21:29;12.07;;;7.57;;
3708;SDS011;1870;53.996;10.784;2023-04-29T08:23:56;11.00;;;6.00;;
3708;SDS011;1870;53.996;10.784;2023-04-29T08:26:22;18.37;;;6.87;;
3708;SDS011;1870;53.996;10.784;2023-04-29T08:28:47;12.23;;;6.80;;
3708;SDS011;1870;53.996;10.784;2023-04-29T08:31:17;10.47;;;6.57;;
3708;SDS011;1870;53.996;10.784;2023-04-29T08:33:43;8.17;;;6.10;;
3708;SDS011;1870;53.996;10.784;2023-04-29T08:36:10;12.83;;;6.60;;
3708;SDS011;1870;53.996;10.784;2023-04-29T08:38:36;8.80;;;6.70;;
3708;SDS011;1870;53.996;10.784;2023-04-29T08:41:01;11.67;;;6.43;;
3708;SDS011;1870;53.996;10.784;2023-04-29T08:43:27;12.93;;;6.73;;
3708;SDS011;1870;53.996;10.784;2023-04-29T08:45:53;13.83;;;7.23;;
3708;SDS011;1870;53.996;10.784;2023-04-29T08:48:21;11.60;;;7.37;;
3708;SDS011;1870;53.996;10.784;2023-04-29T08:50:47;21.23;;;8.27;;
3708;SDS011;1870;53.996;10.784;2023-04-29T08:53:13;10.37;;;7.20;;
3708;SDS011;1870;53.996;10.784;2023-04-29T08:58:11;13.20;;;7.50;;
3708;SDS011;1870;53.996;10.784;2023-04-29T09:00:38;11.93;;;6.33;;
3708;SDS011;1870;53.996;10.784;2023-04-29T09:05:57;11.27;;;6.53;;
3708;SDS011;1870;53.996;10.784;2023-04-29T09:08:25;13.73;;;8.23;;
3708;SDS011;1870;53.996;10.784;2023-04-29T09:10:52;9.10;;;6.30;;
3708;SDS011;1870;53.996;10.784;2023-04-29T09:13:24;10.77;;;6.07;;
3708;SDS011;1870;53.996;10.784;2023-04-29T09:15:51;15.67;;;7.17;;
3708;SDS011;1870;53.996;10.784;2023-04-29T09:21:19;13.20;;;7.20;;
3708;SDS011;1870;53.996;10.784;2023-04-29T09:23:47;11.67;;;6.63;;
3708;SDS011;1870;53.996;10.784;2023-04-29T09:26:17;12.57;;;6.97;;
3708;SDS011;1870;53.996;10.784;2023-04-29T09:28:43;10.13;;;6.53;;
3708;SDS011;1870;53.996;10.784;2023-04-29T09:31:13;12.70;;;7.10;;
3708;SDS011;1870;53.996;10.784;2023-04-29T09:39:19;11.70;;;6.23;;
3708;SDS011;1870;53.996;10.784;2023-04-29T09:44:18;8.43;;;5.90;;
3708;SDS011;1870;53.996;10.784;2023-04-29T09:46:53;11.87;;;7.03;;
3708;SDS011;1870;53.996;10.784;2023-04-29T09:49:24;9.13;;;6.37;;
3708;SDS011;1870;53.996;10.784;2023-04-29T09:51:58;9.70;;;7.03;;
3708;SDS011;1870;53.996;10.784;2023-04-29T09:54:26;9.70;;;6.00;;
3708;SDS011;1870;53.996;10.784;2023-04-29T09:56:57;12.40;;;7.50;;
3708;SDS011;1870;53.996;10.784;2023-04-29T09:59:24;10.30;;;6.23;;
3708;SDS011;1870;53.996;10.784;2023-04-29T10:01:51;8.77;;;6.00;;
3708;SDS011;1870;53.996;10.784;2023-04-29T10:04:22;13.33;;;7.10;;
3708;SDS011;1870;53.996;10.784;2023-04-29T10:06:50;12.20;;;6.50;;
3708;SDS011;1870;53.996;10.784;2023-04-29T10:09:22;12.47;;;7.93;;
3708;SDS011;1870;53.996;10.784;2023-04-29T10:11:49;10.53;;;6.93;;
3708;SDS011;1870;53.996;10.784;2023-04-29T10:14:17;8.57;;;6.17;;
3708;SDS011;1870;53.996;10.784;2023-04-29T10:16:58;11.07;;;7.57;;
3708;SDS011;1870;53.996;10.784;2023-04-29T10:19:37;10.17;;;6.90;;
3708;SDS011;1870;53.996;10.784;2023-04-29T10:22:11;15.23;;;8.10;;
3708;SDS011;1870;53.996;10.784;2023-04-29T10:24:43;8.33;;;5.83;;
3708;SDS011;1870;53.996;10.784;2023-04-29T10:27:11;8.40;;;7.20;;
3708;SDS011;1870;53.996;10.784;2023-04-29T10:29:38;11.00;;;6.90;;
3708;SDS011;1870;53.996;10.784;2023-04-29T10:32:08;11.17;;;7.10;;
3708;SDS011;1870;53.996;10.784;2023-04-29T10:34:36;9.63;;;6.57;;
3708;SDS011;1870;53.996;10.784;2023-04-29T10:37:08;12.47;;;6.83;;
3708;SDS011;1870;53.996;10.784;2023-04-29T10:39:38;12.20;;;7.20;;
3708;SDS011;1870;53.996;10.784;2023-04-29T10:42:24;8.13;;;6.40;;
3708;SDS011;1870;53.996;10.784;2023-04-29T10:45:22;11.13;;;7.00;;
3708;SDS011;1870;53.996;10.784;2023-04-29T10:53:26;13.67;;;7.17;;
3708;SDS011;1870;53.996;10.784;2023-04-29T10:55:53;15.90;;;8.13;;
3708;SDS011;1870;53.996;10.784;2023-04-29T10:58:34;14.27;;;7.60;;
3708;SDS011;1870;53.996;10.784;2023-04-29T11:01:14;9.30;;;6.53;;
3708;SDS011;1870;53.996;10.784;2023-04-29T11:03:54;10.10;;;7.13;;
3708;SDS011;1870;53.996;10.784;2023-04-29T11:06:25;13.73;;;7.60;;
3708;SDS011;1870;53.996;10.784;2023-04-29T11:09:07;11.23;;;7.00;;
3708;SDS011;1870;53.996;10.784;2023-04-29T11:12:03;9.33;;;6.00;;
3708;SDS011;1870;53.996;10.784;2023-04-29T11:14:42;9.60;;;5.77;;
3708;SDS011;1870;53.996;10.784;2023-04-29T11:17:14;9.40;;;6.47;;
3708;SDS011;1870;53.996;10.784;2023-04-29T11:19:44;12.43;;;6.33;;
3708;SDS011;1870;53.996;10.784;2023-04-29T11:24:47;7.63;;;6.50;;
3708;SDS011;1870;53.996;10.784;2023-04-29T11:27:36;10.13;;;7.20;;
3708;SDS011;1870;53.996;10.784;2023-04-29T11:30:04;9.03;;;6.77;;
3708;SDS011;1870;53.996;10.784;2023-04-29T11:32:40;12.13;;;6.53;;
3708;SDS011;1870;53.996;10.784;2023-04-29T11:35:09;14.10;;;8.97;;
3708;SDS011;1870;53.996;10.784;2023-04-29T11:37:36;8.20;;;7.20;;
3708;SDS011;1870;53.996;10.784;2023-04-29T11:40:03;8.83;;;7.70;;
3708;SDS011;1870;53.996;10.784;2023-04-29T11:42:32;9.47;;;7.83;;
3708;SDS011;1870;53.996;10.784;2023-04-29T11:45:18;7.90;;;6.80;;
3708;SDS011;1870;53.996;10.784;2023-04-29T11:47:45;10.03;;;6.70;;
3708;SDS011;1870;53.996;10.784;2023-04-29T11:50:12;9.57;;;7.30;;
3708;SDS011;1870;53.996;10.784;2023-04-29T11:52:41;10.50;;;7.73;;
3708;SDS011;1870;53.996;10.784;2023-04-29T11:55:08;9.83;;;7.63;;
3708;SDS011;1870;53.996;10.784;2023-04-29T11:57:35;12.30;;;8.33;;
3708;SDS011;1870;53.996;10.784;2023-04-29T12:00:01;10.10;;;7.53;;
3708;SDS011;1870;53.996;10.784;2023-04-29T12:02:31;9.00;;;8.00;;
3708;SDS011;1870;53.996;10.784;2023-04-29T12:04:58;8.50;;;7.67;;
3708;SDS011;1870;53.996;10.784;2023-04-29T12:07:25;11.97;;;8.70;;
3708;SDS011;1870;53.996;10.784;2023-04-29T12:09:51;12.87;;;8.47;;
3708;SDS011;1870;53.996;10.784;2023-04-29T12:12:16;11.73;;;8.00;;
3708;SDS011;1870;53.996;10.784;2023-04-29T12:14:43;13.17;;;8.47;;
3708;SDS011;1870;53.996;10.784;2023-04-29T12:17:09;11.43;;;7.87;;
3708;SDS011;1870;53.996;10.784;2023-04-29T12:19:35;13.00;;;8.93;;
3708;SDS011;1870;53.996;10.784;2023-04-29T12:22:03;14.30;;;8.13;;
3708;SDS011;1870;53.996;10.784;2023-04-29T12:24:33;10.03;;;7.90;;
3708;SDS011;1870;53.996;10.784;2023-04-29T12:27:01;10.97;;;7.40;;
3708;SDS011;1870;53.996;10.784;2023-04-29T12:29:26;11.43;;;8.63;;
3708;SDS011;1870;53.996;10.784;2023-04-29T12:31:52;9.53;;;8.10;;
3708;SDS011;1870;53.996;10.784;2023-04-29T12:34:29;13.47;;;9.20;;
3708;SDS011;1870;53.996;10.784;2023-04-29T12:36:59;13.43;;;9.90;;
3708;SDS011;1870;53.996;10.784;2023-04-29T12:39:29;11.60;;;8.53;;
3708;SDS011;1870;53.996;10.784;2023-04-29T12:41:58;10.93;;;8.70;;
3708;SDS011;1870;53.996;10.784;2023-04-29T12:44:24;21.50;;;9.93;;
3708;SDS011;1870;53.996;10.784;2023-04-29T12:46:50;10.70;;;7.83;;
3708;SDS011;1870;53.996;10.784;2023-04-29T12:49:17;15.77;;;7.30;;
3708;SDS011;1870;53.996;10.784;2023-04-29T12:51:43;7.67;;;6.50;;
3708;SDS011;1870;53.996;10.784;2023-04-29T12:54:09;10.83;;;7.40;;
3708;SDS011;1870;53.996;10.784;2023-04-29T12:56:36;11.73;;;7.60;;
3708;SDS011;1870;53.996;10.784;2023-04-29T12:59:08;9.50;;;6.40;;
3708;SDS011;1870;53.996;10.784;2023-04-29T13:01:35;8.17;;;6.20;;
3708;SDS011;1870;53.996;10.784;2023-04-29T13:04:01;8.50;;;7.53;;
3708;SDS011;1870;53.996;10.784;2023-04-29T13:06:29;11.17;;;8.00;;
3708;SDS011;1870;53.996;10.784;2023-04-29T13:08:55;12.07;;;7.67;;
3708;SDS011;1870;53.996;10.784;2023-04-29T13:11:22;12.67;;;7.97;;
3708;SDS011;1870;53.996;10.784;2023-04-29T13:13:47;8.20;;;6.97;;
3708;SDS011;1870;53.996;10.784;2023-04-29T13:16:13;10.87;;;8.27;;
3708;SDS011;1870;53.996;10.784;2023-04-29T13:18:39;9.83;;;7.97;;
3708;SDS011;1870;53.996;10.784;2023-04-29T13:21:16;8.70;;;6.73;;
3708;SDS011;1870;53.996;10.784;2023-04-29T13:23:41;5.53;;;5.03;;
3708;SDS011;1870;53.996;10.784;2023-04-29T13:26:07;6.10;;;5.47;;
3708;SDS011;1870;53.996;10.784;2023-04-29T13:28:36;7.27;;;6.10;;
3708;SDS011;1870;53.996;10.784;2023-04-29T13:31:01;6.17;;;5.47;;
3708;SDS011;1870;53.996;10.784;2023-04-29T13:33:27;8.50;;;5.80;;
3708;SDS011;1870;53.996;10.784;2023-04-29T13:35:53;6.27;;;5.67;;
3708;SDS011;1870;53.996;10.784;2023-04-29T13:38:18;21.10;;;7.37;;
3708;SDS011;1870;53.996;10.784;2023-04-29T13:40:44;9.17;;;6.67;;
3708;SDS011;1870;53.996;10.784;2023-04-29T13:43:10;8.27;;;6.30;;
3708;SDS011;1870;53.996;10.784;2023-04-29T13:45:36;14.17;;;8.47;;
3708;SDS011;1870;53.996;10.784;2023-04-29T13:48:02;7.87;;;6.33;;
3708;SDS011;1870;53.996;10.784;2023-04-29T13:50:30;7.97;;;7.13;;
3708;SDS011;1870;53.996;10.784;2023-04-29T13:52:56;9.93;;;6.50;;
3708;SDS011;1870;53.996;10.784;2023-04-29T13:55:22;7.30;;;6.00;;
3708;SDS011;1870;53.996;10.784;2023-04-29T13:57:47;7.63;;;5.63;;
3708;SDS011;1870;53.996;10.784;2023-04-29T14:00:14;5.70;;;5.20;;
3708;SDS011;1870;53.996;10.784;2023-04-29T14:02:41;6.43;;;5.83;;
3708;SDS011;1870;53.996;10.784;2023-04-29T14:05:10;7.60;;;5.20;;
3708;SDS011;1870;53.996;10.784;2023-04-29T14:07:36;6.17;;;5.00;;
3708;SDS011;1870;53.996;10.784;2023-04-29T14:10:02;5.27;;;4.17;;
3708;SDS011;1870;53.996;10.784;2023-04-29T14:12:28;4.90;;;4.47;;
3708;SDS011;1870;53.996;10.784;2023-04-29T14:14:53;4.93;;;4.43;;
3708;SDS011;1870;53.996;10.784;2023-04-29T14:17:19;6.10;;;5.30;;
3708;SDS011;1870;53.996;10.784;2023-04-29T14:19:48;7.20;;;4.80;;
3708;SDS011;1870;53.996;10.784;2023-04-29T14:22:13;4.60;;;4.30;;
3708;SDS011;1870;53.996;10.784;2023-04-29T14:24:39;5.37;;;4.90;;
3708;SDS011;1870;53.996;10.784;2023-04-29T14:27:05;4.70;;;4.30;;
3708;SDS011;1870;53.996;10.784;2023-04-29T14:29:31;5.17;;;4.67;;
3708;SDS011;1870;53.996;10.784;2023-04-29T14:31:56;4.00;;;3.67;;
3708;SDS011;1870;53.996;10.784;2023-04-29T14:34:25;5.83;;;4.63;;
3708;SDS011;1870;53.996;10.784;2023-04-29T14:36:50;4.40;;;4.00;;
3708;SDS011;1870;53.996;10.784;2023-04-29T14:39:16;5.00;;;4.60;;
3708;SDS011;1870;53.996;10.784;2023-04-29T14:41:42;4.20;;;3.90;;
3708;SDS011;1870;53.996;10.784;2023-04-29T14:44:08;3.93;;;3.63;;
3708;SDS011;1870;53.996;10.784;2023-04-29T14:46:34;4.00;;;3.80;;
3708;SDS011;1870;53.996;10.784;2023-04-29T14:48:59;4.10;;;3.70;;
3708;SDS011;1870;53.996;10.784;2023-04-29T14:51:25;3.57;;;3.27;;
3708;SDS011;1870;53.996;10.784;2023-04-29T14:53:52;3.63;;;3.33;;
3708;SDS011;1870;53.996;10.784;2023-04-29T14:56:17;5.00;;;2.97;;
3708;SDS011;1870;53.996;10.784;2023-04-29T14:58:43;3.60;;;3.40;;
3708;SDS011;1870;53.996;10.784;2023-04-29T15:01:09;3.23;;;3.03;;
3708;SDS011;1870;53.996;10.784;2023-04-29T15:03:35;5.13;;;3.00;;
3708;SDS011;1870;53.996;10.784;2023-04-29T15:06:01;3.23;;;3.03;;
3708;SDS011;1870;53.996;10.784;2023-04-29T15:08:29;3.47;;;3.10;;
3708;SDS011;1870;53.996;10.784;2023-04-29T15:10:55;3.10;;;2.90;;
3708;SDS011;1870;53.996;10.784;2023-04-29T15:13:21;3.73;;;3.03;;
3708;SDS011;1870;53.996;10.784;2023-04-29T15:15:47;4.57;;;4.20;;
3708;SDS011;1870;53.996;10.784;2023-04-29T15:18:13;7.20;;;4.77;;
3708;SDS011;1870;53.996;10.784;2023-04-29T15:20:39;3.93;;;3.60;;
3708;SDS011;1870;53.996;10.784;2023-04-29T15:23:05;3.90;;;3.00;;
3708;SDS011;1870;53.996;10.784;2023-04-29T15:25:32;3.90;;;3.60;;
3708;SDS011;1870;53.996;10.784;2023-04-29T15:27:58;3.30;;;2.60;;
3708;SDS011;1870;53.996;10.784;2023-04-29T15:30:27;4.17;;;3.87;;
3708;SDS011;1870;53.996;10.784;2023-04-29T15:32:56;4.07;;;3.30;;
3708;SDS011;1870;53.996;10.784;2023-04-29T15:35:21;3.57;;;2.80;;